Weather observations for the past three days for
Cocoa - Patrick Air Force Base
| Date | Time (edt) | Wind (kph) | Vis. (km) | Weather | Sky Cond. | Temperature (ºC) | Relative Humidity | Wind Chill (°C) | Heat Index (°C) | Pressure | Precipitation (cm) | ||||||
|---|---|---|---|---|---|---|---|---|---|---|---|---|---|---|---|---|---|
| Air | Dwpt | 6 hour | altimeter (cm) | sea level (mb) | 1 hr | 3 hr | 6 hr | ||||||||||
| Max. | Min. | ||||||||||||||||
| 09 | 10:55 | S 15 | 16.09 | Fair | CLR | 29.7 | 23.6 | 70% | 34 | 75.95 | 1013.0 | ||||||
| 09 | 09:55 | S 11 | 16.09 | Fair | CLR | 28.4 | 22.1 | 69% | 31 | 75.95 | 1013.0 | ||||||
| 09 | 08:55 | SW 7 | 16.09 | Fair | CLR | 26.5 | 22.5 | 79% | 29 | 75.95 | 1013.0 | ||||||
| 09 | 07:55 | SW 9 | 16.09 | Fair | CLR | 25 | 0 | 26 | 24.7 | 0% | 75.92 | 1012.6 | |||||
| 09 | 06:55 | W 7 | 16.09 | Fair | CLR | 0 | 0 | 0% | 0 | 0.0 | |||||||
| 09 | 05:55 | Calm | 0.00 | Fair | CLR | 0 | 0 | 0% | 75.9 | 0.0 | |||||||
| 09 | 04:55 | S 15 | 16.09 | Fair | CLR | 25.5 | 22.4 | 83% | 27 | 75.87 | 1011.9 | ||||||
| 09 | 03:55 | S 17 | 16.09 | Fair | CLR | 25.6 | 21.9 | 80% | 27 | 75.87 | 1011.9 | ||||||
| 09 | 02:55 | S 13 | 16.09 | Fair | CLR | 25.6 | 21.4 | 78% | 27 | 75.9 | 0.0 | ||||||
| 09 | 01:55 | SW 6 | 16.09 | A Few Clouds | FEW075 | 26.1 | 21.9 | 27.7 | 26.1 | 78% | 28 | 75.97 | 0.0 | ||||
| 09 | 00:55 | W 17 | 16.09 | A Few Clouds | FEW075 | 26.4 | 22.2 | 78% | 28 | 76.02 | 1014.0 | ||||||
| 08 | 23:55 | NW 19 | 16.09 | Partly Cloudy | SCT070 | 27.6 | 21.6 | 70% | 30 | 76 | 1013.6 | ||||||
| 08 | 22:55 | S 20 | 16.09 | Fair | CLR | 26.5 | 23.7 | 85% | 29 | 75.95 | 1013.0 | ||||||
| 08 | 21:55 | SE 22 | 16.09 | Fair | CLR | 26.4 | 23.8 | 86% | 29 | 75.92 | 1012.6 | ||||||
| 08 | 20:55 | SE 19 | 16.09 | Fair | CLR | 26.8 | 23.6 | 83% | 30 | 75.92 | 1012.6 | ||||||
| 08 | 19:55 | SE 20 | 16.09 | Fair | CLR | 28 | 24 | 29.6 | 27.2 | 79% | 32 | 75.87 | 0.0 | ||||
| 08 | 18:55 | SE 17 | 16.09 | Fair | CLR | 29 | 24 | 74% | 34 | 75.82 | 0.0 | ||||||
| 08 | 17:55 | Calm | 0.00 | Fair | CLR | 29 | 0 | 0% | 75.82 | 0.0 | |||||||
| 08 | 16:55 | SE 19 G 28 | 16.09 | Partly Cloudy | SCT200 | 29 | 22 | 66% | 32 | 75.84 | 1011.6 | ||||||
| 08 | 15:55 | Calm | 0.00 | Fair | CLR | 29 | 0 | 0% | 75.9 | 1012.3 | |||||||
| 08 | 14:55 | Calm | 0.00 | A Few Clouds | FEW200 | 29 | 0 | 0% | 75.97 | 1013.3 | |||||||
| 08 | 13:55 | E 20 | 16.09 | Partly Cloudy | FEW100 FEW150 SCT180 SCT210 | 29 | 22 | 30 | 25.4 | 66% | 32 | 76.02 | 0.0 | ||||
| 08 | 12:55 | E 20 | 16.09 | A Few Clouds | FEW210 | 30 | 23 | 66% | 34 | 76.02 | 0.0 | ||||||
| 08 | 11:55 | N 9 | 16.09 | Fair | CLR | 29.9 | 21.8 | 62% | 33 | 76.1 | 1015.0 | ||||||
| 08 | 10:55 | NW 9 | 16.09 | Fair | CLR | 28.8 | 22.3 | 68% | 32 | 76.1 | 1015.0 | ||||||
| 08 | 09:55 | NW 13 | 16.09 | Fair | CLR | 27.6 | 22.5 | 74% | 30 | 76.1 | 1015.0 | ||||||
| 08 | 08:55 | NW 17 | 16.09 | Fair | CLR | 25.4 | 21.5 | 79% | 27 | 76.1 | 1015.0 | ||||||
| 08 | 07:55 | Calm | 0.00 | Fair | CLR | 0 | 0 | 25.1 | 22.9 | 0% | 76.07 | 0.0 | |||||
| 08 | 06:55 | Calm | 0.00 | Fair | CLR | 0 | 0 | 0% | 0 | 0.0 | |||||||
| 08 | 05:55 | Calm | 0.00 | Fair | CLR | 0 | 0 | 0% | 0 | 0.0 | |||||||
| 08 | 04:55 | Calm | 0.00 | Fair | CLR | 0 | 0 | 0% | 75.95 | 0.0 | |||||||
| 08 | 03:55 | W 11 | 16.09 | Fair | CLR | 23.4 | 19.3 | 78% | 75.92 | 1012.6 | |||||||
| 08 | 02:55 | W 9 | 16.09 | Fair | CLR | 24.3 | 18.7 | 71% | 25 | 75.95 | 1013.0 | ||||||
| 08 | 01:55 | W 6 | 0.00 | Fair | CLR | 25 | 18.4 | 27.3 | 25 | 67% | 26 | 75.97 | 1013.3 | ||||
| 08 | 00:55 | W 11 | 16.09 | Fair | CLR | 26.1 | 17.7 | 60% | 27 | 76 | 0.0 | ||||||
| 07 | 23:55 | W 11 | 16.09 | Fair | CLR | 25.4 | 21.5 | 79% | 27 | 75.95 | 1013.0 | ||||||
| 07 | 22:55 | S 7 | 16.09 | Fair | CLR | 26.3 | 22.3 | 79% | 28 | 75.95 | 1013.0 | ||||||
| 07 | 21:55 | S 15 | 16.09 | Fair | CLR | 27 | 23.2 | 80% | 30 | 75.92 | 1012.6 | ||||||
| 07 | 20:55 | S 26 | 16.09 | Fair | CLR | 27.1 | 23.5 | 81% | 30 | 75.87 | 1011.9 | ||||||
| 07 | 19:55 | SE 24 | 16.09 | Fair | CLR | 27.3 | 23.3 | 30 | 27.3 | 79% | 30 | 75.87 | 1011.9 | ||||
| 07 | 18:55 | S 9 | 16.09 | Fair | CLR | 28.3 | 23.2 | 74% | 32 | 75.92 | 0.0 | ||||||
| 07 | 17:55 | SE 24 | 16.09 | Fair | CLR | 30 | 22 | 62% | 33 | 75.87 | 0.0 | ||||||
| 07 | 16:55 | S 19 G 28 | 16.09 | Fair | CLR | 32 | 22 | 55% | 36 | 75.9 | 0.0 | ||||||
| 07 | 15:57 | SE 19 | 16.09 | Fair | CLR | 30 | 21 | 59% | 33 | 75.92 | 0.0 | ||||||
| 07 | 15:55 | Calm | 16.09 | Fair | CLR | 30 | 0 | 0% | 75.92 | 1012.6 | |||||||
| 07 | 14:56 | SE 19 | 16.09 | Partly Cloudy | SCT110 | 29.2 | 22.9 | 69% | 33 | 76 | 1013.6 | ||||||
| 07 | 14:55 | Calm | 0.00 | Fair | CLR | 29.2 | 22.9 | 69% | 33 | 76 | 1013.6 | ||||||
| 07 | 13:56 | SE 19 G 28 | 16.09 | Partly Cloudy | FEW170 SCT190 | 33 | 19 | 31.5 | 24.2 | 44% | 35 | 76.07 | 0.0 | ||||
| 07 | 13:55 | Calm | 0.00 | Partly Cloudy | FEW170 SCT200 | 0 | 0 | 31.5 | 24.1 | 0% | 76.07 | 0.0 | |||||
| 07 | 12:57 | SE 13 | 16.09 | A Few Clouds | FEW200 | 30 | 22 | 62% | 33 | 76.1 | 0.0 | ||||||
| 07 | 12:55 | Calm | 16.09 | A Few Clouds | FEW200 | 29.5 | 22.2 | 65% | 33 | 76.1 | 1015.0 | ||||||
| 07 | 11:55 | SW 9 | 16.09 | Fair | CLR | 30.1 | 20.3 | 56% | 32 | 76.12 | 1015.3 | ||||||
| 07 | 10:55 | SW 13 | 16.09 | Fair | CLR | 29.4 | 20.5 | 59% | 32 | 76.15 | 1015.7 | ||||||
| 07 | 09:55 | SW 13 | 16.09 | Fair | CLR | 28.1 | 20.1 | 62% | 30 | 76.17 | 1016.0 | ||||||
| 07 | 08:55 | SW 13 | 16.09 | Fair | CLR | 25.6 | 19.9 | 71% | 27 | 76.17 | 1016.0 | ||||||
| 07 | 07:57 | SW 9 | 16.09 | Fair | CLR | 24.1 | 20.5 | 24.2 | 21.6 | 80% | 24 | 76.15 | 1015.7 | ||||
| 07 | 07:55 | Calm | 0.00 | Fair | CLR | 24 | 20.5 | 24.2 | 21.6 | 81% | 24 | 76.15 | 1015.7 | ||||
| 07 | 06:55 | SW 13 | 16.09 | Fair | CLR | 22 | 0 | 0% | 76.12 | 1015.3 | |||||||
| 07 | 05:55 | SW 13 | 16.09 | Fair | CLR | 21.7 | 19.4 | 87% | 76.07 | 0.0 | |||||||
| 07 | 04:55 | SW 9 | 16.09 | Fair | CLR | 22.7 | 19.8 | 84% | 76.05 | 1014.3 | |||||||
| 07 | 03:55 | SW 9 | 16.09 | Fair | CLR | 22.8 | 19.7 | 83% | 76.02 | 0.0 | |||||||
| 07 | 02:55 | S 9 | 16.09 | Fair | CLR | 22.6 | 19.7 | 84% | 76.07 | 1014.7 | |||||||
| 07 | 01:55 | SW 11 | 16.09 | Fair | CLR | 23.8 | 20.3 | 26.4 | 23.8 | 81% | 76.12 | 1015.3 | |||||
| 07 | 00:55 | SE 19 | 16.09 | Fair | CLR | 25.4 | 20.6 | 75% | 27 | 76.12 | 1015.3 | ||||||
| 06 | 23:55 | SE 15 | 16.09 | Fair | CLR | 25.9 | 20.4 | 72% | 27 | 76.12 | 1015.3 | ||||||
| 06 | 22:55 | SE 20 | 16.09 | Fair | CLR | 25.9 | 20.9 | 74% | 27 | 76.12 | 1015.3 | ||||||
| 06 | 21:55 | SE 22 | 16.09 | Fair | CLR | 26.2 | 20.5 | 71% | 28 | 76.15 | 1015.7 | ||||||
| 06 | 20:55 | SE 17 | 16.09 | Fair | CLR | 26.1 | 19.9 | 69% | 27 | 76.12 | 1015.3 | ||||||
| 06 | 19:55 | SE 22 | 16.09 | Fair | CLR | 26.5 | 19.1 | 28.9 | 26.5 | 64% | 28 | 76.1 | 1015.0 | ||||
| 06 | 18:55 | SE 20 | 16.09 | Fair | CLR | 28 | 20 | 62% | 30 | 76.12 | 1015.3 | ||||||
| 06 | 17:55 | SE 24 | 16.09 | A Few Clouds | FEW130 | 28 | 22 | 70% | 31 | 76.12 | 0.0 | ||||||
| 06 | 16:55 | E 22 | 16.09 | Fair | CLR | 0 | 0 | 0% | 76.15 | 0.0 | |||||||
| 06 | 15:55 | SE 19 | 16.09 | A Few Clouds | FEW140 | 29 | 22 | 66% | 32 | 76.15 | 0.0 | ||||||
| 06 | 14:55 | SE 22 | 16.09 | Fair | CLR | 29 | 22 | 66% | 32 | 76.2 | 1016.3 | ||||||
| 06 | 13:55 | SE 20 | 16.09 | Partly Cloudy | FEW120 FEW140 SCT180 | 28 | 22 | 28.8 | 24.8 | 70% | 31 | 0 | 0.0 | ||||
| 06 | 13:03 | SE 17 | 16.09 | A Few Clouds | FEW190 | 28.5 | 22 | 68% | 31 | 76.25 | 1017.0 | ||||||
| 06 | 12:55 | Calm | 0.00 | A Few Clouds | FEW190 | 28.5 | 22 | 68% | 31 | 76.25 | 1017.0 | ||||||
| 06 | 11:55 | SE 17 | 16.09 | Fair | CLR | 27.9 | 22.1 | 71% | 31 | 76.28 | 1017.4 | ||||||
| Date | Time (edt) | Wind (kph) | Vis. (km) | Weather | Sky Cond. | Air | Dwpt | Max. | Min. | Relative Humidity | Wind Chill (°C) | Heat Index (°C) | altimeter (cm) | sea level (mb) | 1 hr | 3 hr | 6 hr |
| 6 hour | |||||||||||||||||
| Temperature (ºC) | Pressure | Precipitation (cm) | |||||||||||||||